KBRO/BRO METAR and TAF weather

Enter ICAO airport designator
Station Type Date Time Source
KBRO METAR 2018/06/25 01:53 UTC NOAA

KBRO 250153Z 13008KT 10SM FEW020 SCT033 28/24 A2984 RMK AO2 SLP102 T02780239


Station Type Date Time Source
KBRO Decoded METAR 2018/06/25 01:53 UTC NOAA

BROWNSVILLE/SOUTH PADRE IS, TX, United States (KBRO) 25-54N 97-25W 5M
Jun 24, 2018 - 09:53 PM EDT / 2018.06.25 0153 UTC
Wind: from the SE (130 degrees) at 9 MPH (8 KT):0
Visibility: 10 mile(s):0
Sky conditions: partly cloudy
Temperature: 82.0 F (27.8 C)
Dew Point: 75.0 F (23.9 C)
Relative Humidity: 79%
Pressure (altimeter): 29.84 in. Hg (1010 hPa)
ob: KBRO 250153Z 13008KT 10SM FEW020 SCT033 28/24 A2984 RMK AO2 SLP102 T02780239
cycle: 2

Station Type Date Time Source
KBRO TAF 2018/06/25 02:04 UTC NOAA

TAF
AMD KBRO 250202Z 2502/2524 13008KT P6SM FEW020 SCT035
FM250400 14012KT P6SM BKN035
FM250900 13010KT P6SM VCSH BKN030
FM251200 13010KT P6SM -TSRA BKN025CB
FM251500 16017G25KT P6SM -TSRA BKN025CB
FM251800 15014G20KT P6SM VCSH BKN040


Example: see airport list